Schneifelwetter: Wetterstation Hallschlag, 537 m . NN
Wetterdaten: Montag, 12.11.2012
Datum Zeit Temp. A. Feuchte A. Luftdruck Regen Wind Richtung Richtung Sonnenschein T Regen Taupunkt Windchill
12.11.2012 00:00 2,0 C 97 % 1018 hPa 0,0 l/m 2,4 km/h (1 Bft) W-SW 255 0 min 0 min 1,6 C 2,0 C
12.11.2012 00:15 2,1 C 97 % 1018 hPa 0,0 l/m 9,2 km/h (2 Bft) W-SW 255 0 min 0 min 1,7 C -0,5 C
12.11.2012 00:30 2,3 C 97 % 1018 hPa 0,0 l/m 8,9 km/h (2 Bft) W-SW 250 0 min 0 min 1,9 C -0,0 C
12.11.2012 00:45 2,3 C 97 % 1018 hPa 0,0 l/m 13,9 km/h (3 Bft) W-SW 250 0 min 0 min 1,9 C -3,6 C
12.11.2012 01:00 2,4 C 97 % 1018 hPa 0,0 l/m 11,5 km/h (2 Bft) W-SW 245 0 min 0 min 2,0 C -1,9 C
12.11.2012 01:15 2,3 C 96 % 1018 hPa 0,0 l/m 6,7 km/h (2 Bft) W-SW 250 0 min 0 min 1,7 C 2,0 C
12.11.2012 01:30 2,3 C 96 % 1018 hPa 0,0 l/m 6,7 km/h (2 Bft) W-SW 250 0 min 0 min 1,7 C 2,0 C
12.11.2012 01:45 2,5 C 96 % 1018 hPa 0,0 l/m 12,7 km/h (3 Bft) SW22.5 235 0 min 0 min 1,9 C -2,6 C
12.11.2012 02:00 2,5 C 96 % 1018 hPa 0,0 l/m 8,9 km/h (2 Bft) W-SW 250 0 min 0 min 1,9 C 0,2 C
12.11.2012 02:15 2,6 C 96 % 1019 hPa 0,0 l/m 5,4 km/h (1 Bft) W-SW 245 0 min 0 min 2,0 C 2,6 C
12.11.2012 02:30 2,7 C 96 % 1019 hPa 0,0 l/m 7,2 km/h (2 Bft) SW22.5 235 0 min 0 min 2,1 C 1,9 C
12.11.2012 02:45 2,7 C 96 % 1019 hPa 0,0 l/m 8,8 km/h (2 Bft) W-SW22.5 240 0 min 0 min 2,1 C 0,5 C
12.11.2012 03:00 2,7 C 96 % 1019 hPa 0,0 l/m 0,0 km/h (0 Bft) W-SW 240 0 min 0 min 2,1 C 2,7 C
12.11.2012 03:15 2,7 C 96 % 1019 hPa 0,0 l/m 0,0 km/h (0 Bft) W-SW 245 0 min 0 min 2,1 C 2,7 C
12.11.2012 03:30 2,7 C 96 % 1019 hPa 0,0 l/m 0,0 km/h (0 Bft) W-SW 245 0 min 0 min 2,1 C 2,7 C
12.11.2012 03:45 2,7 C 96 % 1019 hPa 0,0 l/m 10,5 km/h (2 Bft) W-SW22.5 240 0 min 0 min 2,1 C -0,8 C
12.11.2012 04:00 2,7 C 96 % 1019 hPa 0,0 l/m 9,8 km/h (2 Bft) W-SW 250 0 min 0 min 2,1 C -0,3 C
12.11.2012 04:15 2,7 C 96 % 1019 hPa 0,0 l/m 7,4 km/h (2 Bft) W-SW 245 0 min 0 min 2,1 C 1,7 C
12.11.2012 04:31 2,7 C 96 % 1019 hPa 0,0 l/m 0,0 km/h (0 Bft) W-SW 245 0 min 0 min 2,1 C 2,7 C
12.11.2012 04:46 2,7 C 96 % 1020 hPa 0,0 l/m 0,0 km/h (0 Bft) W-SW 245 0 min 0 min 2,1 C 2,7 C
12.11.2012 05:01 2,7 C 96 % 1020 hPa 0,0 l/m 6,0 km/h (2 Bft) W-SW 245 0 min 0 min 2,1 C 2,7 C
12.11.2012 05:16 2,7 C 96 % 1020 hPa 0,0 l/m 6,4 km/h (2 Bft) W-SW 245 0 min 0 min 2,1 C 2,7 C
12.11.2012 05:31 2,7 C 96 % 1020 hPa 0,0 l/m 6,5 km/h (2 Bft) W-SW 245 0 min 0 min 2,1 C 2,6 C
12.11.2012 05:46 2,7 C 96 % 1020 hPa 0,0 l/m 0,0 km/h (0 Bft) W-SW 245 0 min 0 min 2,1 C 2,7 C
12.11.2012 06:01 2,7 C 96 % 1020 hPa 0,0 l/m 5,0 km/h (1 Bft) W-SW 245 0 min 0 min 2,1 C 2,7 C
12.11.2012 06:16 2,7 C 96 % 1020 hPa 0,0 l/m 3,9 km/h (1 Bft) W-SW 245 0 min 0 min 2,1 C 2,7 C
12.11.2012 06:31 2,7 C 96 % 1020 hPa 0,0 l/m 1,0 km/h (0 Bft) W-SW 245 0 min 0 min 2,1 C 2,7 C
12.11.2012 06:46 2,4 C 95 % 1020 hPa 0,0 l/m 0,0 km/h (0 Bft) W-SW 245 0 min 0 min 1,7 C 2,4 C
12.11.2012 07:01 2,4 C 96 % 1020 hPa 0,0 l/m 7,9 km/h (2 Bft) W-SW 245 0 min 0 min 1,8 C 1,0 C
12.11.2012 07:16 2,4 C 96 % 1020 hPa 0,0 l/m 5,7 km/h (1 Bft) W-SW 245 0 min 0 min 1,8 C 2,4 C
12.11.2012 07:31 2,2 C 96 % 1020 hPa 0,0 l/m 6,1 km/h (2 Bft) W-SW 245 0 min 0 min 1,6 C 2,2 C
12.11.2012 07:46 1,8 C 95 % 1021 hPa 0,0 l/m 0,4 km/h (0 Bft) W-SW 245 0 min 0 min 1,1 C 1,8 C
12.11.2012 08:01 1,4 C 95 % 1021 hPa 0,0 l/m 0,0 km/h (0 Bft) W-SW 245 0 min 0 min 0,7 C 1,4 C
12.11.2012 08:15 1,4 C 96 % 1021 hPa 0,0 l/m 3,7 km/h (1 Bft) W-SW 245 0 min 0 min 0,8 C 1,4 C
12.11.2012 08:30 1,4 C 96 % 1021 hPa 0,0 l/m 8,8 km/h (2 Bft) W-SW 250 0 min 0 min 0,8 C -0,9 C
12.11.2012 08:45 1,5 C 96 % 1021 hPa 0,0 l/m 14,6 km/h (3 Bft) W-SW22.5 250 0 min 0 min 0,9 C -4,9 C
12.11.2012 09:01 1,8 C 97 % 1021 hPa 0,0 l/m 12,5 km/h (3 Bft) W-SW45 250 0 min 0 min 1,4 C -3,3 C
12.11.2012 09:15 2,3 C 97 % 1021 hPa 0,0 l/m 11,7 km/h (2 Bft) W-SW22.5 255 0 min 0 min 1,9 C -2,1 C
12.11.2012 09:30 3,0 C 97 % 1021 hPa 0,0 l/m 15,4 km/h (3 Bft) SW45 235 0 min 0 min 2,6 C -3,6 C
12.11.2012 09:45 3,5 C 97 % 1021 hPa 0,0 l/m 17,6 km/h (3 Bft) W22.5 260 0 min 0 min 3,1 C -4,0 C
12.11.2012 10:00 3,7 C 97 % 1022 hPa 0,0 l/m 18,8 km/h (3 Bft) W-SW22.5 255 0 min 0 min 3,3 C -4,3 C
12.11.2012 10:15 3,9 C 96 % 1022 hPa 0,0 l/m 23,3 km/h (4 Bft) W-SW22.5 255 0 min 0 min 3,3 C -5,9 C
12.11.2012 10:31 4,2 C 96 % 1022 hPa 0,0 l/m 21,1 km/h (4 Bft) W-SW22.5 250 0 min 0 min 3,6 C -4,6 C
12.11.2012 10:45 4,6 C 95 % 1022 hPa 0,0 l/m 19,3 km/h (3 Bft) W-SW22.5 250 0 min 0 min 3,9 C -3,4 C
12.11.2012 11:00 4,8 C 94 % 1022 hPa 0,0 l/m 28,6 km/h (4 Bft) W22.5 260 0 min 0 min 3,9 C -6,3 C
12.11.2012 11:15 4,7 C 93 % 1022 hPa 0,0 l/m 18,7 km/h (3 Bft) W22.5 270 0 min 0 min 3,7 C -3,0 C
12.11.2012 11:30 5,2 C 92 % 1022 hPa 0,0 l/m 14,1 km/h (3 Bft) W-SW45 255 0 min 0 min 4,0 C -0,2 C
12.11.2012 11:45 5,2 C 91 % 1022 hPa 0,0 l/m 14,6 km/h (3 Bft) W22.5 260 0 min 0 min 3,9 C -0,5 C
12.11.2012 12:00 4,9 C 91 % 1022 hPa 0,0 l/m 13,1 km/h (3 Bft) W-SW22.5 250 0 min 0 min 3,6 C -0,0 C
12.11.2012 12:15 5,6 C 90 % 1022 hPa 0,0 l/m 20,2 km/h (4 Bft) W-SW22.5 255 0 min 0 min 4,1 C -2,5 C
12.11.2012 12:30 5,7 C 87 % 1022 hPa 0,0 l/m 15,8 km/h (3 Bft) W-SW45 240 0 min 0 min 3,7 C -0,5 C
12.11.2012 12:45 6,2 C 86 % 1022 hPa 0,0 l/m 16,0 km/h (3 Bft) W-SW45 250 0 min 0 min 4,0 C 0,1 C
12.11.2012 13:00 7,0 C 82 % 1022 hPa 0,0 l/m 22,7 km/h (4 Bft) SW67.5 230 0 min 0 min 4,1 C -1,5 C
12.11.2012 13:16 6,3 C 83 % 1022 hPa 0,0 l/m 17,5 km/h (3 Bft) W-SW45 250 0 min 0 min 3,6 C -0,5 C
12.11.2012 13:30 6,6 C 84 % 1022 hPa 0,0 l/m 21,2 km/h (4 Bft) W-SW45 245 0 min 0 min 4,1 C -1,5 C
12.11.2012 13:45 7,0 C 82 % 1022 hPa 0,0 l/m 22,8 km/h (4 Bft) W-SW45 240 0 min 0 min 4,1 C -1,6 C
12.11.2012 14:00 7,0 C 80 % 1022 hPa 0,0 l/m 23,1 km/h (4 Bft) W-SW22.5 255 0 min 0 min 3,8 C -1,7 C
12.11.2012 14:15 6,1 C 81 % 1023 hPa 0,0 l/m 20,1 km/h (4 Bft) W-SW22.5 255 0 min 0 min 3,1 C -1,8 C
12.11.2012 14:30 5,4 C 82 % 1022 hPa 0,0 l/m 20,5 km/h (4 Bft) W-SW22.5 250 0 min 0 min 2,6 C -2,8 C
12.11.2012 14:46 5,2 C 83 % 1022 hPa 0,0 l/m 14,0 km/h (3 Bft) SW22.5 235 0 min 0 min 2,6 C -0,2 C
12.11.2012 15:00 5,1 C 82 % 1022 hPa 0,0 l/m 14,7 km/h (3 Bft) W-SW45 240 0 min 0 min 2,3 C -0,6 C
12.11.2012 15:15 5,4 C 82 % 1023 hPa 0,0 l/m 21,3 km/h (4 Bft) W-SW22.5 250 0 min 0 min 2,6 C -3,1 C
12.11.2012 15:30 5,2 C 81 % 1023 hPa 0,0 l/m 24,2 km/h (4 Bft) W-SW22.5 255 0 min 0 min 2,2 C -4,4 C
12.11.2012 15:45 5,1 C 82 % 1023 hPa 0,0 l/m 21,2 km/h (4 Bft) W-SW45 250 0 min 0 min 2,3 C -3,5 C
12.11.2012 16:00 4,9 C 83 % 1023 hPa 0,0 l/m 12,1 km/h (2 Bft) W-SW45 250 0 min 0 min 2,3 C 0,6 C
12.11.2012 16:16 4,4 C 84 % 1023 hPa 0,0 l/m 13,8 km/h (3 Bft) W-SW45 240 0 min 0 min 1,9 C -1,0 C
12.11.2012 16:30 4,0 C 84 % 1023 hPa 0,0 l/m 13,0 km/h (3 Bft) SW22.5 220 0 min 0 min 1,5 C -1,0 C
12.11.2012 16:45 3,3 C 85 % 1023 hPa 0,0 l/m 6,1 km/h (2 Bft) W 260 0 min 0 min 1,0 C 3,3 C
12.11.2012 17:00 2,7 C 86 % 1023 hPa 0,0 l/m 12,7 km/h (3 Bft) SW45 235 0 min 0 min 0,6 C -2,3 C
12.11.2012 17:15 2,3 C 87 % 1024 hPa 0,0 l/m 12,8 km/h (3 Bft) SW22.5 230 0 min 0 min 0,4 C -2,9 C
12.11.2012 17:30 1,8 C 88 % 1024 hPa 0,0 l/m 9,6 km/h (2 Bft) SW22.5 235 0 min 0 min 0,0 C -1,1 C
12.11.2012 17:46 1,5 C 88 % 1024 hPa 0,0 l/m 7,5 km/h (2 Bft) SW 230 0 min 0 min -0,3 C 0,4 C
12.11.2012 18:00 1,2 C 89 % 1024 hPa 0,0 l/m 9,9 km/h (2 Bft) SW 235 0 min 0 min -0,4 C -2,0 C
12.11.2012 18:15 0,7 C 89 % 1024 hPa 0,0 l/m 3,4 km/h (1 Bft) W-SW 240 0 min 0 min -0,9 C 0,7 C
12.11.2012 18:30 0,2 C 89 % 1024 hPa 0,0 l/m 6,0 km/h (2 Bft) W-SW 240 0 min 0 min -1,4 C 0,2 C
12.11.2012 18:45 -0,3 C 90 % 1024 hPa 0,0 l/m 2,4 km/h (1 Bft) W-SW 240 0 min 0 min -1,7 C -0,3 C
12.11.2012 19:00 -0,6 C 91 % 1024 hPa 0,0 l/m 11,8 km/h (2 Bft) W-SW 240 0 min 0 min -1,9 C -5,5 C
12.11.2012 19:16 -0,4 C 92 % 1024 hPa 0,0 l/m 13,3 km/h (3 Bft) W-SW 245 0 min 0 min -1,5 C -6,4 C
12.11.2012 19:30 0,1 C 93 % 1025 hPa 0,0 l/m 15,5 km/h (3 Bft) W-SW 255 0 min 0 min -0,9 C -7,2 C
12.11.2012 19:45 1,0 C 94 % 1025 hPa 0,0 l/m 13,3 km/h (3 Bft) W-SW22.5 240 0 min 0 min 0,1 C -4,7 C
12.11.2012 20:00 1,6 C 94 % 1025 hPa 0,0 l/m 11,8 km/h (2 Bft) SW45 225 0 min 0 min 0,7 C -3,0 C
12.11.2012 20:15 2,0 C 93 % 1025 hPa 0,0 l/m 14,8 km/h (3 Bft) SW45 225 0 min 0 min 1,0 C -4,4 C
12.11.2012 20:30 2,0 C 93 % 1025 hPa 0,0 l/m 12,0 km/h (2 Bft) S-SW45 210 0 min 0 min 1,0 C -2,7 C
12.11.2012 20:46 2,0 C 92 % 1025 hPa 0,0 l/m 15,1 km/h (3 Bft) SW45 235 0 min 0 min 0,8 C -4,6 C
12.11.2012 21:00 2,0 C 92 % 1025 hPa 0,0 l/m 13,8 km/h (3 Bft) W-SW45 240 0 min 0 min 0,8 C -3,9 C
12.11.2012 21:15 1,9 C 92 % 1025 hPa 0,0 l/m 17,3 km/h (3 Bft) SW45 215 0 min 0 min 0,7 C -5,9 C
12.11.2012 21:30 2,0 C 92 % 1025 hPa 0,0 l/m 19,0 km/h (3 Bft) S-SW45 205 0 min 0 min 0,8 C -6,6 C
12.11.2012 21:45 2,1 C 92 % 1025 hPa 0,0 l/m 14,0 km/h (3 Bft) S-SW22.5 210 0 min 0 min 0,9 C -3,9 C
12.11.2012 22:00 2,2 C 92 % 1025 hPa 0,0 l/m 12,1 km/h (2 Bft) SW45 215 0 min 0 min 1,0 C -2,5 C
12.11.2012 22:16 2,2 C 92 % 1025 hPa 0,0 l/m 13,6 km/h (3 Bft) SW22.5 230 0 min 0 min 1,0 C -3,5 C
12.11.2012 22:30 2,2 C 92 % 1025 hPa 0,0 l/m 12,7 km/h (3 Bft) SW22.5 215 0 min 0 min 1,0 C -2,9 C
12.11.2012 22:45 2,2 C 92 % 1025 hPa 0,0 l/m 16,6 km/h (3 Bft) SW45 220 0 min 0 min 1,0 C -5,2 C
12.11.2012 23:00 2,2 C 92 % 1025 hPa 0,0 l/m 20,1 km/h (4 Bft) W-SW22.5 255 0 min 0 min 1,0 C -6,8 C
12.11.2012 23:15 2,2 C 92 % 1025 hPa 0,0 l/m 23,3 km/h (4 Bft) W-SW22.5 250 0 min 0 min 1,0 C -8,1 C
12.11.2012 23:30 2,1 C 92 % 1025 hPa 0,0 l/m 23,5 km/h (4 Bft) W-SW45 255 0 min 0 min 0,9 C -8,3 C
12.11.2012 23:45 2,1 C 92 % 1025 hPa 0,0 l/m 23,8 km/h (4 Bft) W-SW45 245 0 min 0 min 0,9 C -8,4 C
12.11.2012 23:54 2,1 C 92 % 1026 hPa 0,0 l/m 14,5 km/h (3 Bft) W-SW45 250 0 min 0 min 0,9 C -4,2 C
_ Min-Zeit 19:00 14:00 00:00 - 03:00 - - - - 19:00 23:45
Minimum _ -0,6 C 80 % 1018 hPa - 0,0 km/h (0 Bft) - - - - -1,9 C -8,4 C
_ Max-Zeit 13:00 00:00 23:54 00:00 11:00 - - 00:00 00:00 13:00 16:45
Maximum _ 7,0 C 97 % 1026 hPa 0,0 l/m 28,6 km/h
W (4 Bft)
- - 0 min 0 min 4,1 C 3,3 C
Durchschnitt _ 3,0 C 92 % 1022 hPa #0,0 l/m 12,1 km/h (2 Bft) W-SW - #0 min. #0 min. 1,8 C -1,4 C